Sun Valley, ID

2:59 PM MDT on August 27, 2014 (GMT -0600)
RAWS SAWTOOTH PORTABLE #2 ID US | Change Station
CLOSE
Current Station
Personal Weather Station
Location: Sun Valley, ID
Elevation: 7628 ft
Nearby Weather Stations

Elev 7628 ft 43.63 °N, 113.96 °W | Updated 55 minutes ago

Clear
Clear
69 °F
Feels Like 69 °F
N
6
Wind Variable Wind from SSE
Gusts 14.0 mph

Today
High -- | Low -- °F
--% Chance of Precip.
Yesterday
High -- | Low -- °F
Precip. -- in
6:55 AM 8:21 PM
Waxing Crescent, 5% visible
Pressure 30.04 in
Visibility -9999.0 miles
Clouds
Dew Point 39 °F
Humidity 34%
Rainfall 0.00 in
Snow Depth 0 in , 0 in
UV Not available.
Pollen 7.70 out of 12
Air Quality Not available.
Flu Activity Not available.
METAR KSNT 272051Z AUTO VRB04KT 23/03 A3028 RMK AO1 SLP171 T02330033 56012

More Conditions Fewer Conditions

Pressure 30.04 in
Visibility -9999.0 miles
Clouds
Dew Point 39 °F
Humidity 34%
Rainfall 0.00 in
Snow Depth 0 in , 0 in
UV Not available.
Pollen 7.70 out of 12
Air Quality Not available.
Flu Activity Not available.
METAR KSNT 272051Z AUTO VRB04KT 23/03 A3028 RMK AO1 SLP171 T02330033 56012

More Conditions Fewer Conditions

10-Day Weather Forecast

Almanac

Astronomy

Aug. 27, 2014 Rise Set
Actual Time 6:55 AM MDT 8:21 PM MDT
Civil Twilight 6:25 AM MDT 8:51 PM MDT
Nautical Twilight 5:48 AM MDT 9:27 PM MDT
Astronomical Twilight 5:10 AM MDT 10:05 PM MDT
Moon 9:00 AM MDT 9:09 PM MDT
Length of Visible Light 14h 25m
Length of Day
13h 26m
Tomorrow will be 2m 51s shorter.
Waxing Crescent, 5% of the Moon is Illuminated
Today
Waxing Crescent
Sep 2
First Quarter
Sep 8
Full
Sep 15
Last Quarter
Sep 24
New

Today's Extremes

State Highs State Lows

Community

WunderPhotos

Upload Photos

1,747,781 photos uploaded!

Nearby

Snow Depth

Station Depth Elevation
Swede Peak 0 in 7640 ft
Bear Canyon 0 in 7900 ft
Dollarhide Summit 0 in 8420 ft
Vienna Mine 0 in 8960 ft
Atlanta Summit 0 in 7580 ft

Earthquake Activity

City Distance Mag. Time & Date
No recent earthquake activity has been reported nearby.
Minimum magnitude displayed is 2.5.

Coastal Water Temperatures

Place Temperature
No Stations Reporting

Nearby Weather Stations